Flight Track Log - Related Links

Times and Time Zones

All times are in EDT time to prevent confusion due to time zone crossing. See the N400TM flight status page for this flight to view local times or setup timezone preferences in your user account.

Time Position Orientation Groundspeed Altitude Reporting Facility
EDT Latitude Longitude Course Direction KTS MPH feet Rate Location/Type
Sun 10:03:08 PM 36.0633 -115.1697 184° South 114 131 2,800  Level Los Angeles Center
Sun 10:03:26 PM 36.0528 -115.1706 184° South 113 130 3,100 635 Climbing Los Angeles Center
Sun 10:04:33 PM 36.0178 -115.1689 178° South 121 139 3,700 298 Climbing Los Angeles Center
Sun 10:05:27 PM 35.9936 -115.1647 172° South 122 140 3,700 793 Level Los Angeles Center
Sun 10:06:34 PM 35.9494 -115.1514 166° South 132 152 5,300 1,186 Climbing Los Angeles Center
Sun 10:06:53 PM 35.9481 -115.1456 106° East 116 133 5,400 806 Climbing Los Angeles Center
Sun 10:07:41 PM 35.9236 -115.1122 132° Southeast 132 152 6,200 881 Climbing Los Angeles Center
Sun 10:08:42 PM 35.9003 -115.0747 128° Southeast 136 157 7,000 789 Climbing Los Angeles Center
Sun 10:08:57 PM 35.8964 -115.0667 121° Southeast 133 153 7,200 716 Climbing Los Angeles Center
Sun 10:09:49 PM 35.8744 -115.0356 131° Southeast 138 159 7,800 629 Climbing Los Angeles Center
Sun 10:11:01 PM 35.8472 -114.9922 128° Southeast 139 160 8,500 716 Climbing Los Angeles Center
Sun 10:12:03 PM 35.8225 -114.9575 131° Southeast 137 158 9,400 732 Climbing Los Angeles Center
Sun 10:13:04 PM 35.7975 -114.9214 130° Southeast 137 158 10,000 683 Climbing Los Angeles Center
Sun 10:14:06 PM 35.7728 -114.8844 130° Southeast 139 160 10,800 871 Climbing Los Angeles Center
Sun 10:15:08 PM 35.7425 -114.8397 130° Southeast 142 163 11,800 780 Climbing Los Angeles Center
Sun 10:16:09 PM 35.7219 -114.8108 131° Southeast 141 162 12,400 677 Climbing Los Angeles Center
Sun 10:17:12 PM 35.6906 -114.7656 130° Southeast 144 166 13,200 726 Climbing Los Angeles Center
Sun 10:18:13 PM 35.6617 -114.7250 131° Southeast 156 180 13,900 585 Climbing Los Angeles Center
Sun 10:19:15 PM 35.6322 -114.6864 133° Southeast 156 180 14,400 629 Climbing Los Angeles Center
Sun 10:20:17 PM 35.6044 -114.6450 130° Southeast 156 180 15,200 726 Climbing Los Angeles Center
Sun 10:21:19 PM 35.5747 -114.6075 134° Southeast 153 176 15,900 732 Climbing Los Angeles Center
Sun 10:22:20 PM 35.5419 -114.5583 129° Southeast 154 177 16,700 683 Climbing Los Angeles Center
Sun 10:23:22 PM 35.5131 -114.5172 131° Southeast 158 182 17,300 435 Climbing Los Angeles Center
Sun 10:24:24 PM 35.4817 -114.4758 133° Southeast 162 186 17,600 146 Climbing Los Angeles Center
Sun 10:25:25 PM 35.4478 -114.4314 133° Southeast 174 200 17,600  Level Los Angeles Center
Sun 10:26:27 PM 35.4164 -114.3778 126° Southeast 188 216 17,600  Level Los Angeles Center
Sun 10:27:29 PM 35.3822 -114.3258 129° Southeast 194 223 17,600  Level Los Angeles Center
Sun 10:28:31 PM 35.3461 -114.2747 131° Southeast 195 224 17,600  Level Los Angeles Center
Sun 10:29:32 PM 35.3042 -114.2119 129° Southeast 198 228 17,600  Level Los Angeles Center
Sun 10:30:34 PM 35.2667 -114.1619 133° Southeast 198 228 17,600 -48 Level Los Angeles Center
Sun 10:31:36 PM 35.2317 -114.1100 130° Southeast 198 228 17,500 -48 Descending Los Angeles Center
Sun 10:32:38 PM 35.1947 -114.0594 132° Southeast 198 228 17,500  Level Los Angeles Center
Sun 10:33:39 PM 35.1594 -114.0089 130° Southeast 197 227 17,500  Level Los Angeles Center
Sun 10:34:41 PM 35.1219 -113.9594 133° Southeast 197 227 17,500  Level Los Angeles Center
Sun 10:35:43 PM 35.0881 -113.9081 129° Southeast 197 227 17,500  Level Los Angeles Center
Sun 10:36:56 PM 35.0514 -113.8581 132° Southeast 199 229 17,500 44 Level Los Angeles Center
Sun 10:37:58 PM 35.0019 -113.7889 131° Southeast 195 224 17,600 48 Climbing Los Angeles Center
Sun 10:39:00 PM 34.9658 -113.7389 131° Southeast 197 227 17,600  Level Los Angeles Center
Sun 10:40:02 PM 34.9294 -113.6883 131° Southeast 199 229 17,600  Level Los Angeles Center
Sun 10:41:04 PM 34.8925 -113.6392 132° Southeast 199 229 17,600 -67 Level Los Angeles Center
Sun 10:41:31 PM 34.8706 -113.6094 132° Southeast 198 228 17,500  Descending Albuquerque Center
Sun 10:42:32 PM 34.8319 -113.5614 134° Southeast 200 230 17,600 49 Climbing Albuquerque Center
Sun 10:43:34 PM 34.7953 -113.5100 131° Southeast 201 231 17,600  Level Albuquerque Center
Sun 10:44:35 PM 34.7611 -113.4583 129° Southeast 199 229 17,600  Level Albuquerque Center
Sun 10:45:36 PM 34.7258 -113.4072 130° Southeast 198 228 17,600  Level Albuquerque Center
Sun 10:46:38 PM 34.6917 -113.3592 131° Southeast 194 223 17,600 -49 Level Albuquerque Center
Sun 10:47:39 PM 34.6569 -113.3092 130° Southeast 193 222 17,500 -49 Descending Albuquerque Center
Sun 10:48:40 PM 34.6164 -113.2528 131° Southeast 188 216 17,500  Level Albuquerque Center
Sun 10:49:41 PM 34.5850 -113.2056 129° Southeast 183 211 17,500  Level Albuquerque Center
Sun 10:50:43 PM 34.5511 -113.1583 131° Southeast 186 214 17,500  Level Albuquerque Center
Sun 10:51:44 PM 34.5172 -113.1136 133° Southeast 183 211 17,500  Level Albuquerque Center
Sun 10:52:45 PM 34.4844 -113.0664 130° Southeast 184 212 17,500 49 Level Albuquerque Center
Sun 10:53:46 PM 34.4497 -113.0219 133° Southeast 183 211 17,600 49 Climbing Albuquerque Center
Sun 10:54:48 PM 34.4103 -112.9694 132° Southeast 184 212 17,600  Level Albuquerque Center
Sun 10:55:49 PM 34.3747 -112.9225 133° Southeast 187 215 17,600 49 Level Albuquerque Center
Sun 10:56:50 PM 34.3403 -112.8761 132° Southeast 188 216 17,700 -98 Climbing Albuquerque Center
Sun 10:57:52 PM 34.3078 -112.8272 129° Southeast 187 215 17,400 -683 Descending Albuquerque Center
Sun 10:58:53 PM 34.2658 -112.7733 133° Southeast 215 247 16,300 -1,131 Descending Albuquerque Center
Sun 10:59:54 PM 34.2214 -112.7136 132° Southeast 236 272 15,100 -1,333 Descending Albuquerque Center
Sun 11:00:14 PM 34.1997 -112.6883 136° Southeast 242 278 14,500 -885 Descending Albuquerque Center
Sun 11:00:55 PM 34.1756 -112.6556 132° Southeast 240 276 14,200 -689 Descending Albuquerque Center
Sun 11:01:15 PM 34.1600 -112.6317 128° Southeast 227 261 13,800 -1,065 Descending Albuquerque Center
Sun 11:01:57 PM 34.1353 -112.5972 131° Southeast 229 264 13,100 -990 Descending Albuquerque Center
Sun 11:02:58 PM 34.0919 -112.5406 133° Southeast 231 266 12,100 -1,033 Descending Albuquerque Center
Sun 11:03:59 PM 34.0425 -112.4681 129° Southeast 233 268 11,000 -1,122 Descending Albuquerque Center
Sun 11:05:01 PM 34.0022 -112.4086 129° Southeast 231 266 9,800 -1,171 Descending Albuquerque Center
Sun 11:06:02 PM 33.9606 -112.3464 129° Southeast 238 274 8,600 -1,131 Descending Albuquerque Center
Sun 11:07:03 PM 33.9231 -112.2822 125° Southeast 236 272 7,500 -1,073 Descending Albuquerque Center
Sun 11:08:05 PM 33.8875 -112.2194 124° Southeast 230 265 6,400 -878 Descending Albuquerque Center
Sun 11:09:06 PM 33.8517 -112.1558 124° Southeast 225 259 5,700 -393 Descending Albuquerque Center
Sun 11:10:07 PM 33.8214 -112.1042 125° Southeast 201 231 5,600 -98 Descending Albuquerque Center
Sun 11:11:08 PM 33.7839 -112.0481 129° Southeast 181 208 5,500 -49 Descending Albuquerque Center
Sun 11:12:10 PM 33.7542 -112.0083 132° Southeast 175 201 5,500  Level Albuquerque Center

Login

Don't have an account? Register now (free) for customized features, flight alerts, and more!